sensor_id;sensor_type;location;lat;lon;timestamp;pressure;altitude;pressure_sealevel;temperature;humidity
6833;BME280;3454;42.654;23.378;2023-06-26T00:00:11;65031.94;;;19.53;100.00
6833;BME280;3454;42.654;23.378;2023-06-26T00:02:37;65027.31;;;19.46;100.00
6833;BME280;3454;42.654;23.378;2023-06-26T00:05:02;65024.97;;;19.49;100.00
6833;BME280;3454;42.654;23.378;2023-06-26T00:07:29;65021.13;;;19.45;100.00
6833;BME280;3454;42.654;23.378;2023-06-26T00:09:55;65022.22;;;19.46;100.00
6833;BME280;3454;42.654;23.378;2023-06-26T00:12:20;65027.53;;;19.49;100.00
6833;BME280;3454;42.654;23.378;2023-06-26T00:14:45;65016.69;;;19.41;100.00
6833;BME280;3454;42.654;23.378;2023-06-26T00:17:11;65024.22;;;19.46;100.00
6833;BME280;3454;42.654;23.378;2023-06-26T00:19:37;65010.97;;;19.34;100.00
6833;BME280;3454;42.654;23.378;2023-06-26T00:22:02;65014.06;;;19.34;100.00
6833;BME280;3454;42.654;23.378;2023-06-26T00:24:27;65003.22;;;19.26;100.00
6833;BME280;3454;42.654;23.378;2023-06-26T00:26:53;65011.84;;;19.32;100.00
6833;BME280;3454;42.654;23.378;2023-06-26T00:29:18;65006.53;;;19.29;100.00
6833;BME280;3454;42.654;23.378;2023-06-26T00:31:44;65012.06;;;19.35;100.00
6833;BME280;3454;42.654;23.378;2023-06-26T00:34:09;65008.53;;;19.29;100.00
6833;BME280;3454;42.654;23.378;2023-06-26T00:36:35;65005.97;;;19.29;100.00
6833;BME280;3454;42.654;23.378;2023-06-26T00:39:00;65001.56;;;19.25;100.00
6833;BME280;3454;42.654;23.378;2023-06-26T00:41:25;64994.59;;;19.21;100.00
6833;BME280;3454;42.654;23.378;2023-06-26T00:43:51;64999.91;;;19.23;100.00
6833;BME280;3454;42.654;23.378;2023-06-26T00:46:16;64994.94;;;19.19;100.00
6833;BME280;3454;42.654;23.378;2023-06-26T00:48:43;64997.13;;;19.21;100.00
6833;BME280;3454;42.654;23.378;2023-06-26T00:51:09;64990.16;;;19.17;100.00
6833;BME280;3454;42.654;23.378;2023-06-26T00:53:35;64996.41;;;19.18;100.00
6833;BME280;3454;42.654;23.378;2023-06-26T00:56:02;65008.00;;;19.28;100.00
6833;BME280;3454;42.654;23.378;2023-06-26T00:58:28;65000.81;;;19.22;100.00
6833;BME280;3454;42.654;23.378;2023-06-26T01:00:54;64997.13;;;19.21;100.00
6833;BME280;3454;42.654;23.378;2023-06-26T01:03:21;65001.00;;;19.24;100.00
6833;BME280;3454;42.654;23.378;2023-06-26T01:05:49;65001.22;;;19.27;100.00
6833;BME280;3454;42.654;23.378;2023-06-26T01:08:16;65001.00;;;19.24;100.00
6833;BME280;3454;42.654;23.378;2023-06-26T01:10:42;64999.91;;;19.23;100.00
6833;BME280;3454;42.654;23.378;2023-06-26T01:13:08;65000.13;;;19.26;100.00
6833;BME280;3454;42.654;23.378;2023-06-26T01:15:34;65004.09;;;19.25;100.00
6833;BME280;3454;42.654;23.378;2023-06-26T01:18:00;64993.84;;;19.18;100.00
6833;BME280;3454;42.654;23.378;2023-06-26T01:20:37;64985.75;;;19.13;100.00
6833;BME280;3454;42.654;23.378;2023-06-26T01:23:52;64986.66;;;19.11;100.00
6833;BME280;3454;42.654;23.378;2023-06-26T01:26:20;64981.69;;;19.07;100.00
6833;BME280;3454;42.654;23.378;2023-06-26T01:28:47;64980.81;;;19.08;100.00
6833;BME280;3454;42.654;23.378;2023-06-26T01:31:14;64983.91;;;19.09;100.00
6833;BME280;3454;42.654;23.378;2023-06-26T01:33:41;64973.97;;;19.00;100.00
6833;BME280;3454;42.654;23.378;2023-06-26T01:36:14;64971.75;;;18.98;100.00
6833;BME280;3454;42.654;23.378;2023-06-26T01:38:39;64978.38;;;19.04;100.00
6833;BME280;3454;42.654;23.378;2023-06-26T01:41:05;64969.00;;;18.95;100.00
6833;BME280;3454;42.654;23.378;2023-06-26T01:46:53;64960.72;;;18.88;100.00
6833;BME280;3454;42.654;23.378;2023-06-26T01:49:21;64965.16;;;18.92;100.00
6833;BME280;3454;42.654;23.378;2023-06-26T01:52:12;64957.97;;;18.85;100.00
6833;BME280;3454;42.654;23.378;2023-06-26T01:54:52;64958.53;;;18.86;100.00
6833;BME280;3454;42.654;23.378;2023-06-26T01:57:18;64963.69;;;18.93;100.00
6833;BME280;3454;42.654;23.378;2023-06-26T01:59:45;64954.84;;;18.85;100.00
6833;BME280;3454;42.654;23.378;2023-06-26T02:02:11;64955.97;;;18.86;100.00
6833;BME280;3454;42.654;23.378;2023-06-26T02:04:37;64958.72;;;18.88;100.00
6833;BME280;3454;42.654;23.378;2023-06-26T02:07:03;64960.16;;;18.87;100.00
6833;BME280;3454;42.654;23.378;2023-06-26T02:09:28;64953.00;;;18.81;100.00
6833;BME280;3454;42.654;23.378;2023-06-26T02:11:54;64959.09;;;18.86;100.00
6833;BME280;3454;42.654;23.378;2023-06-26T02:14:19;64953.22;;;18.83;100.00
6833;BME280;3454;42.654;23.378;2023-06-26T02:16:45;64949.69;;;18.78;100.00
6833;BME280;3454;42.654;23.378;2023-06-26T02:19:10;64959.97;;;18.85;100.00
6833;BME280;3454;42.654;23.378;2023-06-26T02:21:35;64945.28;;;18.74;100.00
6833;BME280;3454;42.654;23.378;2023-06-26T02:24:01;64945.06;;;18.71;100.00
6833;BME280;3454;42.654;23.378;2023-06-26T02:26:27;64953.34;;;18.79;100.00
6833;BME280;3454;42.654;23.378;2023-06-26T02:28:53;64946.94;;;18.75;100.00
6833;BME280;3454;42.654;23.378;2023-06-26T02:31:18;64949.69;;;18.78;100.00
6833;BME280;3454;42.654;23.378;2023-06-26T02:33:44;64950.25;;;18.78;100.00
6833;BME280;3454;42.654;23.378;2023-06-26T02:36:10;64946.38;;;18.75;100.00
6833;BME280;3454;42.654;23.378;2023-06-26T02:38:36;64948.94;;;18.75;100.00
6833;BME280;3454;42.654;23.378;2023-06-26T02:41:01;64948.03;;;18.76;100.00
6833;BME280;3454;42.654;23.378;2023-06-26T02:43:27;64948.59;;;18.77;100.00
6833;BME280;3454;42.654;23.378;2023-06-26T02:45:52;64932.59;;;18.62;100.00
6833;BME280;3454;42.654;23.378;2023-06-26T02:48:17;64946.19;;;18.72;100.00
6833;BME280;3454;42.654;23.378;2023-06-26T02:50:43;64941.97;;;18.71;100.00
6833;BME280;3454;42.654;23.378;2023-06-26T02:53:11;64946.72;;;18.73;100.00
6833;BME280;3454;42.654;23.378;2023-06-26T02:55:36;64924.53;;;18.57;100.00
6833;BME280;3454;42.654;23.378;2023-06-26T02:58:02;64926.16;;;18.59;100.00
6833;BME280;3454;42.654;23.378;2023-06-26T03:00:27;64932.03;;;18.62;100.00
6833;BME280;3454;42.654;23.378;2023-06-26T03:02:55;64918.81;;;18.50;100.00
6833;BME280;3454;42.654;23.378;2023-06-26T03:05:20;64927.97;;;18.56;100.00
6833;BME280;3454;42.654;23.378;2023-06-26T03:07:46;64913.84;;;18.45;100.00
6833;BME280;3454;42.654;23.378;2023-06-26T03:10:12;64924.31;;;18.55;100.00
6833;BME280;3454;42.654;23.378;2023-06-26T03:12:37;64912.50;;;18.41;100.00
6833;BME280;3454;42.654;23.378;2023-06-26T03:15:03;64911.84;;;18.46;100.00
6833;BME280;3454;42.654;23.378;2023-06-26T03:17:28;64912.75;;;18.44;100.00
6833;BME280;3454;42.654;23.378;2023-06-26T03:19:53;64949.13;;;18.77;100.00
6833;BME280;3454;42.654;23.378;2023-06-26T03:22:19;64964.78;;;18.94;100.00
6833;BME280;3454;42.654;23.378;2023-06-26T03:24:44;64957.22;;;18.82;100.00
6833;BME280;3454;42.654;23.378;2023-06-26T03:27:11;64949.13;;;18.77;100.00
6833;BME280;3454;42.654;23.378;2023-06-26T03:29:37;64942.19;;;18.73;100.00
6833;BME280;3454;42.654;23.378;2023-06-26T03:32:02;64938.09;;;18.67;100.00
6833;BME280;3454;42.654;23.378;2023-06-26T03:34:28;64927.84;;;18.60;100.00
6833;BME280;3454;42.654;23.378;2023-06-26T03:36:53;64929.69;;;18.64;100.00
6833;BME280;3454;42.654;23.378;2023-06-26T03:39:19;64945.84;;;18.74;100.00
6833;BME280;3454;42.654;23.378;2023-06-26T03:41:44;64937.56;;;18.67;100.00
6833;BME280;3454;42.654;23.378;2023-06-26T03:44:09;64937.56;;;18.67;100.00
6833;BME280;3454;42.654;23.378;2023-06-26T03:46:35;64951.56;;;18.82;100.00
6833;BME280;3454;42.654;23.378;2023-06-26T03:49:00;64942.88;;;18.69;100.00
6833;BME280;3454;42.654;23.378;2023-06-26T03:51:26;64930.94;;;18.61;100.00
6833;BME280;3454;42.654;23.378;2023-06-26T03:53:51;64939.75;;;18.69;100.00
6833;BME280;3454;42.654;23.378;2023-06-26T03:56:16;64937.38;;;18.64;100.00
6833;BME280;3454;42.654;23.378;2023-06-26T03:58:42;64932.03;;;18.62;100.00
6833;BME280;3454;42.654;23.378;2023-06-26T04:01:07;64930.19;;;18.58;100.00
6833;BME280;3454;42.654;23.378;2023-06-26T04:03:33;64938.66;;;18.68;100.00
6833;BME280;3454;42.654;23.378;2023-06-26T04:05:59;64943.44;;;18.70;100.00
6833;BME280;3454;42.654;23.378;2023-06-26T04:08:24;64944.94;;;18.76;100.00
6833;BME280;3454;42.654;23.378;2023-06-26T04:10:52;64945.63;;;18.72;100.00
6833;BME280;3454;42.654;23.378;2023-06-26T04:13:19;64944.94;;;18.76;100.00
6833;BME280;3454;42.654;23.378;2023-06-26T04:15:44;64956.88;;;18.84;100.00
6833;BME280;3454;42.654;23.378;2023-06-26T04:18:09;64964.25;;;18.93;100.00
6833;BME280;3454;42.654;23.378;2023-06-26T04:20:39;64966.78;;;18.93;100.00
6833;BME280;3454;42.654;23.378;2023-06-26T04:23:06;64972.84;;;18.99;100.00
6833;BME280;3454;42.654;23.378;2023-06-26T04:25:31;64972.84;;;18.99;100.00
6833;BME280;3454;42.654;23.378;2023-06-26T04:27:57;64983.91;;;19.09;100.00
6833;BME280;3454;42.654;23.378;2023-06-26T04:30:22;64991.06;;;19.15;100.00
6833;BME280;3454;42.654;23.378;2023-06-26T04:32:47;64986.09;;;19.11;100.00
6833;BME280;3454;42.654;23.378;2023-06-26T04:35:13;64988.13;;;19.10;100.00
6833;BME280;3454;42.654;23.378;2023-06-26T04:37:38;64987.97;;;19.15;100.00
6833;BME280;3454;42.654;23.378;2023-06-26T04:40:05;64994.03;;;19.20;100.00
6833;BME280;3454;42.654;23.378;2023-06-26T04:42:32;64999.56;;;19.25;100.00
6833;BME280;3454;42.654;23.378;2023-06-26T04:44:57;65105.97;;;20.20;100.00
6833;BME280;3454;42.654;23.378;2023-06-26T04:47:23;65072.78;;;19.90;100.00
6833;BME280;3454;42.654;23.378;2023-06-26T04:49:48;65058.84;;;19.82;100.00
6833;BME280;3454;42.654;23.378;2023-06-26T04:52:13;65056.44;;;19.77;100.00
6833;BME280;3454;42.654;23.378;2023-06-26T04:54:39;65072.25;;;19.89;100.00
6833;BME280;3454;42.654;23.378;2023-06-26T04:57:05;65069.50;;;19.87;100.00
6833;BME280;3454;42.654;23.378;2023-06-26T04:59:31;65077.41;;;19.96;100.00
6833;BME280;3454;42.654;23.378;2023-06-26T05:01:56;65073.56;;;19.93;100.00
6833;BME280;3454;42.654;23.378;2023-06-26T05:04:22;65059.19;;;19.80;100.00
6833;BME280;3454;42.654;23.378;2023-06-26T05:06:48;65031.38;;;19.52;100.00
6833;BME280;3454;42.654;23.378;2023-06-26T05:09:13;65073.34;;;19.90;100.00
6833;BME280;3454;42.654;23.378;2023-06-26T05:11:39;65092.88;;;20.10;100.00
6833;BME280;3454;42.654;23.378;2023-06-26T05:14:05;65081.84;;;20.00;100.00
6833;BME280;3454;42.654;23.378;2023-06-26T05:16:33;65063.63;;;19.84;100.00
6833;BME280;3454;42.654;23.378;2023-06-26T05:18:59;65059.91;;;19.76;100.00
6833;BME280;3454;42.654;23.378;2023-06-26T05:21:25;65068.59;;;19.88;100.00
6833;BME280;3454;42.654;23.378;2023-06-26T05:23:52;65104.06;;;20.16;100.00
6833;BME280;3454;42.654;23.378;2023-06-26T05:26:27;65087.38;;;20.05;100.00
6833;BME280;3454;42.654;23.378;2023-06-26T05:28:53;65097.31;;;20.15;100.00
6833;BME280;3454;42.654;23.378;2023-06-26T05:31:19;65062.53;;;19.83;100.00
6833;BME280;3454;42.654;23.378;2023-06-26T05:33:45;65066.72;;;19.84;100.00
6833;BME280;3454;42.654;23.378;2023-06-26T05:36:12;65054.03;;;19.73;100.00
6833;BME280;3454;42.654;23.378;2023-06-26T05:38:39;65055.69;;;19.74;100.00
6833;BME280;3454;42.654;23.378;2023-06-26T05:41:05;65043.00;;;19.63;100.00
6833;BME280;3454;42.654;23.378;2023-06-26T05:43:30;65050.19;;;19.69;100.00
6833;BME280;3454;42.654;23.378;2023-06-26T05:45:56;65062.88;;;19.81;100.00
6833;BME280;3454;42.654;23.378;2023-06-26T05:48:23;65053.28;;;19.70;100.00
6833;BME280;3454;42.654;23.378;2023-06-26T05:50:49;65062.31;;;19.80;100.00
6833;BME280;3454;42.654;23.378;2023-06-26T05:53:14;65074.13;;;19.93;100.00
6833;BME280;3454;42.654;23.378;2023-06-26T05:55:40;65085.88;;;19.99;100.00
6833;BME280;3454;42.654;23.378;2023-06-26T05:58:09;65068.59;;;19.88;100.00
6833;BME280;3454;42.654;23.378;2023-06-26T06:00:35;65068.94;;;19.86;100.00
6833;BME280;3454;42.654;23.378;2023-06-26T06:03:01;65056.03;;;19.72;100.00
6833;BME280;3454;42.654;23.378;2023-06-26T06:05:26;65057.53;;;19.78;100.00
6833;BME280;3454;42.654;23.378;2023-06-26T06:07:51;65062.88;;;19.81;100.00
6833;BME280;3454;42.654;23.378;2023-06-26T06:10:17;65070.78;;;19.90;100.00
6833;BME280;3454;42.654;23.378;2023-06-26T06:12:42;65067.50;;;19.87;100.00
6833;BME280;3454;42.654;23.378;2023-06-26T06:15:08;65056.44;;;19.77;100.00
6833;BME280;3454;42.654;23.378;2023-06-26T06:17:33;65066.72;;;19.84;100.00
6833;BME280;3454;42.654;23.378;2023-06-26T06:19:59;65063.44;;;19.81;100.00
6833;BME280;3454;42.654;23.378;2023-06-26T06:22:25;65066.16;;;19.84;100.00
6833;BME280;3454;42.654;23.378;2023-06-26T06:24:51;65073.34;;;19.90;100.00
6833;BME280;3454;42.654;23.378;2023-06-26T06:27:16;65069.69;;;19.89;100.00
6833;BME280;3454;42.654;23.378;2023-06-26T06:29:42;65075.22;;;19.94;100.00
6833;BME280;3454;42.654;23.378;2023-06-26T06:32:08;65093.44;;;20.11;100.00
6833;BME280;3454;42.654;23.378;2023-06-26T06:34:34;65102.31;;;20.19;100.00
6833;BME280;3454;42.654;23.378;2023-06-26T06:37:00;65111.50;;;20.25;100.00
6833;BME280;3454;42.654;23.378;2023-06-26T06:39:25;65119.97;;;20.35;100.00
6833;BME280;3454;42.654;23.378;2023-06-26T06:41:51;65126.06;;;20.41;100.00
6833;BME280;3454;42.654;23.378;2023-06-26T06:44:16;65111.34;;;20.30;100.00
6833;BME280;3454;42.654;23.378;2023-06-26T06:46:42;65119.41;;;20.35;100.00
6833;BME280;3454;42.654;23.378;2023-06-26T06:49:08;65133.94;;;20.43;100.00
6833;BME280;3454;42.654;23.378;2023-06-26T06:51:33;65164.75;;;20.76;100.00
6833;BME280;3454;42.654;23.378;2023-06-26T06:53:59;65198.47;;;21.07;100.00
6833;BME280;3454;42.654;23.378;2023-06-26T06:56:24;65237.53;;;21.40;100.00
6833;BME280;3454;42.654;23.378;2023-06-26T06:58:50;65242.31;;;21.42;100.00
6833;BME280;3454;42.654;23.378;2023-06-26T07:01:15;65232.97;;;21.40;100.00
6833;BME280;3454;42.654;23.378;2023-06-26T07:03:41;65256.00;;;21.59;100.00
6833;BME280;3454;42.654;23.378;2023-06-26T07:06:06;65276.63;;;21.73;100.00
6833;BME280;3454;42.654;23.378;2023-06-26T07:08:31;65298.63;;;21.98;100.00
6833;BME280;3454;42.654;23.378;2023-06-26T07:10:57;65327.38;;;22.24;100.00
6833;BME280;3454;42.654;23.378;2023-06-26T07:13:23;65334.03;;;22.30;100.00
6833;BME280;3454;42.654;23.378;2023-06-26T07:15:48;65332.91;;;22.29;100.00
6833;BME280;3454;42.654;23.378;2023-06-26T07:18:14;65361.50;;;22.52;100.00
6833;BME280;3454;42.654;23.378;2023-06-26T07:20:39;65326.97;;;22.19;100.00
6833;BME280;3454;42.654;23.378;2023-06-26T07:23:05;65330.13;;;22.26;100.00
6833;BME280;3454;42.654;23.378;2023-06-26T07:25:30;65349.53;;;22.44;100.00
6833;BME280;3454;42.654;23.378;2023-06-26T07:27:56;65346.19;;;22.41;100.00
6833;BME280;3454;42.654;23.378;2023-06-26T07:30:21;65364.06;;;22.52;100.00
6833;BME280;3454;42.654;23.378;2023-06-26T07:32:47;65341.75;;;22.37;100.00
6833;BME280;3454;42.654;23.378;2023-06-26T07:35:12;65363.16;;;22.54;100.00
6833;BME280;3454;42.654;23.378;2023-06-26T07:37:38;65350.41;;;22.42;100.00
6833;BME280;3454;42.654;23.378;2023-06-26T07:40:04;65330.69;;;22.27;100.00
6833;BME280;3454;42.654;23.378;2023-06-26T07:42:29;65352.28;;;22.46;100.00
6833;BME280;3454;42.654;23.378;2023-06-26T07:44:55;65368.00;;;22.63;100.00
6833;BME280;3454;42.654;23.378;2023-06-26T07:47:20;65396.06;;;22.86;99.34
6833;BME280;3454;42.654;23.378;2023-06-26T07:49:46;65396.41;;;22.84;96.60
6833;BME280;3454;42.654;23.378;2023-06-26T07:52:11;65388.28;;;22.79;95.59
6833;BME280;3454;42.654;23.378;2023-06-26T07:54:37;65390.50;;;22.81;99.29
6833;BME280;3454;42.654;23.378;2023-06-26T07:57:04;65424.84;;;23.12;97.77
6833;BME280;3454;42.654;23.378;2023-06-26T07:59:32;65435.38;;;23.22;95.40
6833;BME280;3454;42.654;23.378;2023-06-26T08:01:58;65419.66;;;23.05;91.04
6833;BME280;3454;42.654;23.378;2023-06-26T08:04:27;65414.88;;;23.03;91.48
6833;BME280;3454;42.654;23.378;2023-06-26T08:06:56;65420.59;;;23.11;91.53
6833;BME280;3454;42.654;23.378;2023-06-26T08:09:24;65430.94;;;23.18;88.70
6833;BME280;3454;42.654;23.378;2023-06-26T08:11:49;65448.88;;;23.37;86.18
6833;BME280;3454;42.654;23.378;2023-06-26T08:14:16;65473.63;;;23.57;89.86
6833;BME280;3454;42.654;23.378;2023-06-26T08:16:42;65504.09;;;23.84;93.53
6833;BME280;3454;42.654;23.378;2023-06-26T08:19:09;65478.59;;;23.61;89.43
6833;BME280;3454;42.654;23.378;2023-06-26T08:21:35;65468.97;;;23.50;87.48
6833;BME280;3454;42.654;23.378;2023-06-26T08:24:00;65436.47;;;23.23;89.68
6833;BME280;3454;42.654;23.378;2023-06-26T08:26:25;65452.75;;;23.40;87.16
6833;BME280;3454;42.654;23.378;2023-06-26T08:28:51;65482.28;;;23.62;86.81
6833;BME280;3454;42.654;23.378;2023-06-26T08:31:17;65477.50;;;23.60;88.18
6833;BME280;3454;42.654;23.378;2023-06-26T08:33:42;65473.63;;;23.57;85.18
6833;BME280;3454;42.654;23.378;2023-06-26T08:36:08;65459.38;;;23.39;84.91
6833;BME280;3454;42.654;23.378;2023-06-26T08:38:34;65420.59;;;23.11;86.91
6833;BME280;3454;42.654;23.378;2023-06-26T08:41:00;65435.91;;;23.22;85.69
6833;BME280;3454;42.654;23.378;2023-06-26T08:43:26;65461.22;;;23.43;83.75
6833;BME280;3454;42.654;23.378;2023-06-26T08:45:52;65483.03;;;23.65;89.63
6833;BME280;3454;42.654;23.378;2023-06-26T08:48:18;65445.91;;;23.31;83.55
6833;BME280;3454;42.654;23.378;2023-06-26T08:50:48;65438.13;;;23.24;85.99
6833;BME280;3454;42.654;23.378;2023-06-26T08:53:21;65457.53;;;23.42;84.98
6833;BME280;3454;42.654;23.378;2023-06-26T08:55:52;65438.13;;;23.24;86.04
6833;BME280;3454;42.654;23.378;2023-06-26T08:58:18;65453.09;;;23.38;83.28
6833;BME280;3454;42.654;23.378;2023-06-26T09:00:44;65474.72;;;23.58;81.92
6833;BME280;3454;42.654;23.378;2023-06-26T09:03:10;65464.75;;;23.49;80.02
6833;BME280;3454;42.654;23.378;2023-06-26T09:05:36;65468.06;;;23.52;80.71
6833;BME280;3454;42.654;23.378;2023-06-26T09:08:02;65457.75;;;23.45;82.89
6833;BME280;3454;42.654;23.378;2023-06-26T09:10:27;65467.88;;;23.49;79.81
6833;BME280;3454;42.654;23.378;2023-06-26T09:12:56;65479.91;;;23.65;79.32
6833;BME280;3454;42.654;23.378;2023-06-26T09:15:26;65537.91;;;24.15;79.47
6833;BME280;3454;42.654;23.378;2023-06-26T09:17:56;65527.94;;;24.06;75.42
6833;BME280;3454;42.654;23.378;2023-06-26T09:20:22;65529.78;;;24.10;76.66
6833;BME280;3454;42.654;23.378;2023-06-26T09:22:48;65552.31;;;24.28;76.12
6833;BME280;3454;42.654;23.378;2023-06-26T09:25:13;65511.66;;;23.89;76.93
6833;BME280;3454;42.654;23.378;2023-06-26T09:27:39;65485.78;;;23.68;76.70
6833;BME280;3454;42.654;23.378;2023-06-26T09:30:06;65526.84;;;24.05;81.51
6833;BME280;3454;42.654;23.378;2023-06-26T09:32:35;65557.31;;;24.33;77.01
6833;BME280;3454;42.654;23.378;2023-06-26T09:35:04;65538.13;;;24.17;76.56
6833;BME280;3454;42.654;23.378;2023-06-26T09:37:30;65501.31;;;23.82;76.22
6833;BME280;3454;42.654;23.378;2023-06-26T09:39:55;65518.69;;;24.00;76.61
6833;BME280;3454;42.654;23.378;2023-06-26T09:42:21;65508.53;;;23.88;76.38
6833;BME280;3454;42.654;23.378;2023-06-26T09:44:47;65486.91;;;23.69;77.47
6833;BME280;3454;42.654;23.378;2023-06-26T09:47:16;65506.88;;;23.87;78.13
6833;BME280;3454;42.654;23.378;2023-06-26T09:49:43;65535.72;;;24.13;83.57
6833;BME280;3454;42.654;23.378;2023-06-26T09:52:09;65500.78;;;23.81;78.16
6833;BME280;3454;42.654;23.378;2023-06-26T09:54:34;65491.00;;;23.75;81.31
6833;BME280;3454;42.654;23.378;2023-06-26T09:57:07;65519.03;;;23.98;80.60
6833;BME280;3454;42.654;23.378;2023-06-26T09:59:33;65530.91;;;24.11;76.38
6833;BME280;3454;42.654;23.378;2023-06-26T10:02:00;65502.63;;;23.85;77.44
6833;BME280;3454;42.654;23.378;2023-06-26T10:04:26;65480.25;;;23.63;76.30
6833;BME280;3454;42.654;23.378;2023-06-26T10:06:55;65473.97;;;23.55;77.79
6833;BME280;3454;42.654;23.378;2023-06-26T10:09:22;65462.75;;;23.49;76.52
6833;BME280;3454;42.654;23.378;2023-06-26T10:11:56;65427.25;;;23.17;75.55
6833;BME280;3454;42.654;23.378;2023-06-26T10:14:26;65459.41;;;23.46;79.91
6833;BME280;3454;42.654;23.378;2023-06-26T10:16:54;65471.59;;;23.57;76.42
6833;BME280;3454;42.654;23.378;2023-06-26T10:19:22;65474.53;;;23.55;76.46
6833;BME280;3454;42.654;23.378;2023-06-26T10:21:55;65504.66;;;23.85;81.11
6833;BME280;3454;42.654;23.378;2023-06-26T10:24:22;65509.09;;;23.89;73.19
6833;BME280;3454;42.654;23.378;2023-06-26T10:26:50;65541.25;;;24.18;77.57
6833;BME280;3454;42.654;23.378;2023-06-26T10:29:17;65546.78;;;24.23;74.84
6833;BME280;3454;42.654;23.378;2023-06-26T10:31:50;65517.38;;;23.96;75.55
6833;BME280;3454;42.654;23.378;2023-06-26T10:34:16;65528.50;;;24.06;79.73
6833;BME280;3454;42.654;23.378;2023-06-26T10:36:42;65550.09;;;24.26;78.92
6833;BME280;3454;42.654;23.378;2023-06-26T10:39:07;65558.09;;;24.36;79.23
6833;BME280;3454;42.654;23.378;2023-06-26T10:41:37;65569.53;;;24.44;77.84
6833;BME280;3454;42.654;23.378;2023-06-26T10:44:16;65546.03;;;24.20;82.26
6833;BME280;3454;42.654;23.378;2023-06-26T10:46:53;65535.72;;;24.13;79.48
6833;BME280;3454;42.654;23.378;2023-06-26T10:49:29;65528.13;;;24.08;77.32
6833;BME280;3454;42.654;23.378;2023-06-26T10:52:00;65532.38;;;24.10;75.04
6833;BME280;3454;42.654;23.378;2023-06-26T10:54:29;65516.47;;;23.98;73.44
6833;BME280;3454;42.654;23.378;2023-06-26T10:56:55;65504.28;;;23.87;68.99
6833;BME280;3454;42.654;23.378;2023-06-26T10:59:25;65522.75;;;23.99;73.33
6833;BME280;3454;42.654;23.378;2023-06-26T11:01:58;65541.25;;;24.18;73.51
6833;BME280;3454;42.654;23.378;2023-06-26T11:04:46;65538.47;;;24.15;72.88
6833;BME280;3454;42.654;23.378;2023-06-26T11:07:16;65557.88;;;24.33;78.98
6833;BME280;3454;42.654;23.378;2023-06-26T11:12:35;65542.00;;;24.21;79.75
6833;BME280;3454;42.654;23.378;2023-06-26T11:15:02;65542.56;;;24.22;79.50
6833;BME280;3454;42.654;23.378;2023-06-26T11:17:29;65542.34;;;24.19;72.15
6833;BME280;3454;42.654;23.378;2023-06-26T11:19:54;65545.31;;;24.24;72.83
6833;BME280;3454;42.654;23.378;2023-06-26T11:22:21;65552.31;;;24.28;75.84
6833;BME280;3454;42.654;23.378;2023-06-26T11:24:49;65580.81;;;24.56;72.47
6833;BME280;3454;42.654;23.378;2023-06-26T11:27:18;65582.84;;;24.56;74.72
6833;BME280;3454;42.654;23.378;2023-06-26T11:29:48;65597.44;;;24.71;71.50
6833;BME280;3454;42.654;23.378;2023-06-26T11:32:14;65632.22;;;25.01;75.33
6833;BME280;3454;42.654;23.378;2023-06-26T11:34:40;65600.03;;;24.71;67.22
6833;BME280;3454;42.654;23.378;2023-06-26T11:37:07;65611.91;;;24.84;67.21
6833;BME280;3454;42.654;23.378;2023-06-26T11:39:33;65648.31;;;25.15;65.87
6833;BME280;3454;42.654;23.378;2023-06-26T11:42:00;65671.81;;;25.39;63.56
6833;BME280;3454;42.654;23.378;2023-06-26T11:44:30;65732.88;;;25.94;64.22
6833;BME280;3454;42.654;23.378;2023-06-26T11:46:56;65786.22;;;26.42;60.48
6833;BME280;3454;42.654;23.378;2023-06-26T11:49:22;65811.59;;;26.63;59.62
6833;BME280;3454;42.654;23.378;2023-06-26T11:51:51;65765.69;;;26.24;57.40
6833;BME280;3454;42.654;23.378;2023-06-26T11:54:27;65712.91;;;25.76;58.93
6833;BME280;3454;42.654;23.378;2023-06-26T11:56:56;65678.84;;;25.43;60.18
6833;BME280;3454;42.654;23.378;2023-06-26T11:59:22;65662.19;;;25.28;63.51
6833;BME280;3454;42.654;23.378;2023-06-26T12:01:49;65649.97;;;25.17;63.13
6833;BME280;3454;42.654;23.378;2023-06-26T12:04:17;65640.00;;;25.08;62.04
6833;BME280;3454;42.654;23.378;2023-06-26T12:06:50;65639.44;;;25.07;64.12
6833;BME280;3454;42.654;23.378;2023-06-26T12:09:18;65720.69;;;25.83;62.32
6833;BME280;3454;42.654;23.378;2023-06-26T12:11:44;65766.22;;;26.24;61.38
6833;BME280;3454;42.654;23.378;2023-06-26T12:14:14;65763.25;;;26.19;57.30
6833;BME280;3454;42.654;23.378;2023-06-26T12:16:46;65728.44;;;25.90;57.60
6833;BME280;3454;42.654;23.378;2023-06-26T12:19:12;65753.25;;;26.10;58.72
6833;BME280;3454;42.654;23.378;2023-06-26T12:24:04;65805.84;;;26.62;55.78
6833;BME280;3454;42.654;23.378;2023-06-26T12:26:30;65841.06;;;26.90;58.79
6833;BME280;3454;42.654;23.378;2023-06-26T12:29:03;65853.47;;;27.03;55.49
6833;BME280;3454;42.654;23.378;2023-06-26T12:31:29;65853.47;;;27.03;56.68
6833;BME280;3454;42.654;23.378;2023-06-26T12:33:56;65911.66;;;27.54;54.83
6833;BME280;3454;42.654;23.378;2023-06-26T12:36:21;65851.06;;;26.99;53.51
6833;BME280;3454;42.654;23.378;2023-06-26T12:38:48;65865.50;;;27.12;54.07
6833;BME280;3454;42.654;23.378;2023-06-26T12:41:15;65872.75;;;27.18;53.34
6833;BME280;3454;42.654;23.378;2023-06-26T12:43:41;65836.06;;;26.85;53.16
6833;BME280;3454;42.654;23.378;2023-06-26T12:46:07;65848.66;;;27.01;52.67
6833;BME280;3454;42.654;23.378;2023-06-26T12:48:39;65859.97;;;27.07;52.16
6833;BME280;3454;42.654;23.378;2023-06-26T12:51:16;65858.66;;;27.10;53.64
6833;BME280;3454;42.654;23.378;2023-06-26T12:53:42;65852.19;;;27.00;55.48
6833;BME280;3454;42.654;23.378;2023-06-26T12:56:08;65876.63;;;27.22;58.17
6833;BME280;3454;42.654;23.378;2023-06-26T12:58:35;65797.88;;;26.53;57.56
6833;BME280;3454;42.654;23.378;2023-06-26T13:01:04;65775.84;;;26.28;58.37
6833;BME280;3454;42.654;23.378;2023-06-26T13:03:43;65817.69;;;26.69;60.48
6833;BME280;3454;42.654;23.378;2023-06-26T13:06:08;65832.16;;;26.82;58.80
6833;BME280;3454;42.654;23.378;2023-06-26T13:08:34;65765.69;;;26.24;58.14
6833;BME280;3454;42.654;23.378;2023-06-26T13:11:00;65773.44;;;26.31;60.31